Time,TemperatureF,DewpointF,PressureIn,WindDirection,WindDirectionDegrees,WindSpeedMPH,WindSpeedGustMPH,Humidity,HourlyPrecipIn,Conditions,Clouds,dailyrainin,SolarRadiationWatts/m^2,SoftwareType,DateUTC
2013-09-13 00:00:00,43.0,41.0,-100.00,WNW,294,1.0,2.0,94,0.00,,,0.00,0.000000,,2013-09-13 05:00:00,
2013-09-13 00:22:00,43.0,41.0,-100.00,WNW,294,1.0,2.0,94,0.00,,,0.00,0.000000,,2013-09-13 05:22:00,
2013-09-13 00:34:00,43.0,41.0,-100.00,WNW,294,1.0,2.0,94,0.00,,,0.00,0.000000,,2013-09-13 05:34:00,
2013-09-13 00:43:00,43.0,41.0,-100.00,WNW,294,1.0,2.0,94,0.00,,,0.00,0.000000,,2013-09-13 05:43:00,
2013-09-13 00:53:00,43.0,41.0,-100.00,WNW,294,1.0,2.0,94,0.00,,,0.00,0.000000,,2013-09-13 05:53:00,
2013-09-13 01:00:00,41.0,39.0,-100.00,NNW,329,1.0,2.0,94,0.00,,,0.00,0.000000,,2013-09-13 06:00:00,
2013-09-13 01:22:00,41.0,39.0,-100.00,NNW,329,1.0,2.0,94,0.00,,,0.00,0.000000,,2013-09-13 06:22:00,
2013-09-13 01:32:00,41.0,39.0,-100.00,NNW,329,1.0,2.0,94,0.00,,,0.00,0.000000,,2013-09-13 06:32:00,
2013-09-13 01:42:00,41.0,39.0,-100.00,NNW,329,1.0,2.0,94,0.00,,,0.00,0.000000,,2013-09-13 06:42:00,
2013-09-13 01:52:00,41.0,39.0,-100.00,NNW,329,1.0,2.0,94,0.00,,,0.00,0.000000,,2013-09-13 06:52:00,
2013-09-13 02:00:00,41.0,40.0,-100.00,ESE,121,0.0,3.0,95,0.00,,,0.00,0.000000,,2013-09-13 07:00:00,
2013-09-13 02:22:00,41.0,40.0,-100.00,ESE,121,0.0,3.0,95,0.00,,,0.00,0.000000,,2013-09-13 07:22:00,
2013-09-13 02:34:00,41.0,40.0,-100.00,ESE,121,0.0,3.0,95,0.00,,,0.00,0.000000,,2013-09-13 07:34:00,
2013-09-13 02:43:00,41.0,40.0,-100.00,ESE,121,0.0,3.0,95,0.00,,,0.00,0.000000,,2013-09-13 07:43:00,
2013-09-13 02:52:00,41.0,40.0,-100.00,ESE,121,0.0,3.0,95,0.00,,,0.00,0.000000,,2013-09-13 07:52:00,
2013-09-13 03:00:00,38.0,37.0,-100.00,NNW,340,0.0,2.0,95,0.00,,,0.00,0.000000,,2013-09-13 08:00:00,
2013-09-13 03:22:00,38.0,37.0,-100.00,NNW,340,0.0,2.0,95,0.00,,,0.00,0.000000,,2013-09-13 08:22:00,
2013-09-13 03:32:00,38.0,37.0,-100.00,NNW,340,0.0,2.0,95,0.00,,,0.00,0.000000,,2013-09-13 08:32:00,
2013-09-13 03:42:00,38.0,37.0,-100.00,NNW,340,0.0,2.0,95,0.00,,,0.00,0.000000,,2013-09-13 08:42:00,
2013-09-13 03:52:00,38.0,37.0,-100.00,NNW,340,0.0,2.0,95,0.00,,,0.00,0.000000,,2013-09-13 08:52:00,
2013-09-13 04:00:00,36.0,35.0,-100.00,NW,319,0.0,2.0,95,0.00,,,0.00,0.000000,,2013-09-13 09:00:00,
2013-09-13 04:21:00,36.0,35.0,-100.00,NW,319,0.0,2.0,95,0.00,,,0.00,0.000000,,2013-09-13 09:21:00,
2013-09-13 04:33:00,36.0,35.0,-100.00,NW,319,0.0,2.0,95,0.00,,,0.00,0.000000,,2013-09-13 09:33:00,
2013-09-13 04:43:00,36.0,35.0,-100.00,NW,319,0.0,2.0,95,0.00,,,0.00,0.000000,,2013-09-13 09:43:00,
2013-09-13 04:54:00,36.0,35.0,-100.00,NW,319,0.0,2.0,95,0.00,,,0.00,0.000000,,2013-09-13 09:54:00,
2013-09-13 05:00:00,35.0,34.0,-100.00,East,94,0.0,0.0,95,0.00,,,0.00,0.000000,,2013-09-13 10:00:00,
2013-09-13 05:42:00,35.0,34.0,-100.00,East,94,0.0,0.0,95,0.00,,,0.00,0.000000,,2013-09-13 10:42:00,
2013-09-13 05:53:00,35.0,34.0,-100.00,East,94,0.0,0.0,95,0.00,,,0.00,0.000000,,2013-09-13 10:53:00,
2013-09-13 06:00:00,34.0,33.0,-100.00,WSW,245,0.0,0.0,95,0.00,,,0.00,0.000000,,2013-09-13 11:00:00,
2013-09-13 06:42:00,34.0,33.0,-100.00,WSW,245,0.0,0.0,95,0.00,,,0.00,0.000000,,2013-09-13 11:42:00,
2013-09-13 06:52:00,34.0,33.0,-100.00,WSW,245,0.0,0.0,95,0.00,,,0.00,0.000000,,2013-09-13 11:52:00,
2013-09-13 07:00:00,33.0,32.0,-100.00,NNW,335,0.0,0.0,95,0.00,,,0.00,5.000000,,2013-09-13 12:00:00,
2013-09-13 07:42:00,33.0,32.0,-100.00,NNW,335,0.0,0.0,95,0.00,,,0.00,5.000000,,2013-09-13 12:42:00,
2013-09-13 07:52:00,33.0,32.0,-100.00,NNW,335,0.0,0.0,95,0.00,,,0.00,5.000000,,2013-09-13 12:52:00,
2013-09-13 08:00:00,40.0,38.0,-100.00,NE,39,0.0,2.0,94,0.00,,,0.00,161.000000,,2013-09-13 13:00:00,
2013-09-13 08:42:00,40.0,38.0,-100.00,NE,39,0.0,2.0,94,0.00,,,0.00,161.000000,,2013-09-13 13:42:00,
2013-09-13 08:52:00,40.0,38.0,-100.00,NE,39,0.0,2.0,94,0.00,,,0.00,161.000000,,2013-09-13 13:52:00,
2013-09-13 09:00:00,51.0,44.0,-100.00,NE,37,1.0,2.0,78,0.00,,,0.00,366.000000,,2013-09-13 14:00:00,
2013-09-13 09:42:00,51.0,44.0,-100.00,NE,37,1.0,2.0,78,0.00,,,0.00,366.000000,,2013-09-13 14:42:00,
2013-09-13 09:52:00,51.0,44.0,-100.00,NE,37,1.0,2.0,78,0.00,,,0.00,366.000000,,2013-09-13 14:52:00,
2013-09-13 10:00:00,56.0,44.0,-100.00,NE,43,3.0,8.0,63,0.00,,,0.00,561.000000,,2013-09-13 15:00:00,
2013-09-13 10:43:00,56.0,44.0,-100.00,NE,43,3.0,8.0,63,0.00,,,0.00,561.000000,,2013-09-13 15:43:00,
2013-09-13 10:53:00,56.0,44.0,-100.00,NE,43,3.0,8.0,63,0.00,,,0.00,561.000000,,2013-09-13 15:53:00,
2013-09-13 11:00:00,56.0,44.0,-100.00,NNW,339,4.0,8.0,63,0.00,,,0.00,517.000000,,2013-09-13 16:00:00,
2013-09-13 11:43:00,56.0,44.0,-100.00,NNW,339,4.0,8.0,63,0.00,,,0.00,517.000000,,2013-09-13 16:43:00,
2013-09-13 11:54:00,56.0,44.0,-100.00,NNW,339,4.0,8.0,63,0.00,,,0.00,517.000000,,2013-09-13 16:54:00,
2013-09-13 12:00:00,57.0,42.0,-100.00,North,8,4.0,9.0,57,0.00,,,0.00,361.000000,,2013-09-13 17:00:00,
2013-09-13 12:44:00,57.0,42.0,-100.00,North,8,4.0,9.0,57,0.00,,,0.00,361.000000,,2013-09-13 17:44:00,
2013-09-13 12:53:00,57.0,42.0,-100.00,North,8,4.0,9.0,57,0.00,,,0.00,361.000000,,2013-09-13 17:53:00,
2013-09-13 13:00:00,59.0,43.0,-100.00,North,354,3.0,10.0,55,0.00,,,0.00,652.000000,,2013-09-13 18:00:00,
2013-09-13 13:22:00,59.0,43.0,-100.00,North,354,3.0,10.0,55,0.00,,,0.00,652.000000,,2013-09-13 18:22:00,
2013-09-13 13:32:00,59.0,43.0,-100.00,North,354,3.0,10.0,55,0.00,,,0.00,652.000000,,2013-09-13 18:32:00,
2013-09-13 13:42:00,59.0,43.0,-100.00,North,354,3.0,10.0,55,0.00,,,0.00,652.000000,,2013-09-13 18:42:00,
2013-09-13 13:52:00,59.0,43.0,-100.00,North,354,3.0,10.0,55,0.00,,,0.00,652.000000,,2013-09-13 18:52:00,
2013-09-13 14:00:00,60.0,41.0,-100.00,ENE,58,4.0,8.0,50,0.00,,,0.00,671.000000,,2013-09-13 19:00:00,
2013-09-13 14:43:00,60.0,41.0,-100.00,ENE,58,4.0,8.0,50,0.00,,,0.00,671.000000,,2013-09-13 19:43:00,
2013-09-13 14:52:00,60.0,41.0,-100.00,ENE,58,4.0,8.0,50,0.00,,,0.00,671.000000,,2013-09-13 19:52:00,
2013-09-13 15:00:00,60.0,42.0,-100.00,NNW,341,4.0,10.0,52,0.00,,,0.00,514.000000,,2013-09-13 20:00:00,
2013-09-13 15:43:00,60.0,42.0,-100.00,NNW,341,4.0,10.0,52,0.00,,,0.00,514.000000,,2013-09-13 20:43:00,
2013-09-13 15:52:00,60.0,42.0,-100.00,NNW,341,4.0,10.0,52,0.00,,,0.00,514.000000,,2013-09-13 20:52:00,
2013-09-13 16:00:00,62.0,43.0,-100.00,NNE,27,5.0,8.0,50,0.00,,,0.00,652.000000,,2013-09-13 21:00:00,
2013-09-13 16:44:00,62.0,43.0,-100.00,NNE,27,5.0,8.0,50,0.00,,,0.00,652.000000,,2013-09-13 21:44:00,
2013-09-13 16:54:00,62.0,43.0,-100.00,NNE,27,5.0,8.0,50,0.00,,,0.00,652.000000,,2013-09-13 21:54:00,
2013-09-13 17:00:00,63.0,42.0,-100.00,NNW,345,4.0,9.0,47,0.00,,,0.00,570.000000,,2013-09-13 22:00:00,
2013-09-13 17:24:00,63.0,42.0,-100.00,NNW,345,4.0,9.0,47,0.00,,,0.00,570.000000,,2013-09-13 22:24:00,
2013-09-13 17:33:00,63.0,42.0,-100.00,NNW,345,4.0,9.0,47,0.00,,,0.00,570.000000,,2013-09-13 22:33:00,
2013-09-13 17:43:00,63.0,42.0,-100.00,NNW,345,4.0,9.0,47,0.00,,,0.00,570.000000,,2013-09-13 22:43:00,
2013-09-13 17:53:00,63.0,42.0,-100.00,NNW,345,4.0,9.0,47,0.00,,,0.00,570.000000,,2013-09-13 22:53:00,
2013-09-13 18:00:00,60.0,46.0,-100.00,West,280,2.0,6.0,59,0.00,,,0.00,232.000000,,2013-09-13 23:00:00,
2013-09-13 18:43:00,60.0,46.0,-100.00,West,280,2.0,6.0,59,0.00,,,0.00,232.000000,,2013-09-13 23:43:00,
2013-09-13 18:53:00,60.0,46.0,-100.00,West,280,2.0,6.0,59,0.00,,,0.00,232.000000,,2013-09-13 23:53:00,
2013-09-13 19:00:00,56.0,47.0,-100.00,NW,307,0.0,3.0,71,0.00,,,0.00,87.000000,,2013-09-14 00:00:00,
2013-09-13 19:22:00,56.0,47.0,-100.00,NW,307,0.0,3.0,71,0.00,,,0.00,87.000000,,2013-09-14 00:22:00,
2013-09-13 19:32:00,56.0,47.0,-100.00,NW,307,0.0,3.0,71,0.00,,,0.00,87.000000,,2013-09-14 00:32:00,
2013-09-13 19:42:00,56.0,47.0,-100.00,NW,307,0.0,3.0,71,0.00,,,0.00,87.000000,,2013-09-14 00:42:00,
2013-09-13 19:52:00,56.0,47.0,-100.00,NW,307,0.0,3.0,71,0.00,,,0.00,87.000000,,2013-09-14 00:52:00,
2013-09-13 20:00:00,48.0,45.0,-100.00,SE,135,0.0,2.0,89,0.00,,,0.00,3.000000,,2013-09-14 01:00:00,
2013-09-13 20:42:00,48.0,45.0,-100.00,SE,135,0.0,2.0,89,0.00,,,0.00,3.000000,,2013-09-14 01:42:00,
2013-09-13 20:52:00,48.0,45.0,-100.00,SE,135,0.0,2.0,89,0.00,,,0.00,3.000000,,2013-09-14 01:52:00,
2013-09-13 21:00:00,44.0,42.0,-100.00,East,80,0.0,0.0,92,0.00,,,0.00,0.000000,,2013-09-14 02:00:00,
2013-09-13 21:22:00,44.0,42.0,-100.00,East,80,0.0,0.0,92,0.00,,,0.00,0.000000,,2013-09-14 02:22:00,
2013-09-13 21:33:00,44.0,42.0,-100.00,East,80,0.0,0.0,92,0.00,,,0.00,0.000000,,2013-09-14 02:33:00,
2013-09-13 21:42:00,44.0,42.0,-100.00,East,80,0.0,0.0,92,0.00,,,0.00,0.000000,,2013-09-14 02:42:00,
2013-09-13 21:52:00,44.0,42.0,-100.00,East,80,0.0,0.0,92,0.00,,,0.00,0.000000,,2013-09-14 02:52:00,
2013-09-13 22:00:00,43.0,42.0,-100.00,ESE,109,0.0,2.0,95,0.00,,,0.00,0.000000,,2013-09-14 03:00:00,
2013-09-13 22:22:00,43.0,42.0,-100.00,ESE,109,0.0,2.0,95,0.00,,,0.00,0.000000,,2013-09-14 03:22:00,
2013-09-13 22:34:00,43.0,42.0,-100.00,ESE,109,0.0,2.0,95,0.00,,,0.00,0.000000,,2013-09-14 03:34:00,
2013-09-13 22:45:00,43.0,42.0,-100.00,ESE,109,0.0,2.0,95,0.00,,,0.00,0.000000,,2013-09-14 03:45:00,
2013-09-13 22:55:00,43.0,42.0,-100.00,ESE,109,0.0,2.0,95,0.00,,,0.00,0.000000,,2013-09-14 03:55:00,
2013-09-13 23:00:00,40.0,38.0,-100.00,NE,43,0.0,0.0,93,0.00,,,0.00,0.000000,,2013-09-14 04:00:00,
2013-09-13 23:43:00,40.0,38.0,-100.00,NE,43,0.0,0.0,93,0.00,,,0.00,0.000000,,2013-09-14 04:43:00,
2013-09-13 23:54:00,40.0,38.0,-100.00,NE,43,0.0,0.0,93,0.00,,,0.00,0.000000,,2013-09-14 04:54:00,